LOWG/GRZ METAR and TAF weather

Enter ICAO airport designator
Station Type Date Time Source
LOWG METAR 2023/02/05 22:50 UTC NOAA

LOWG 052250Z AUTO VRB01KT 9999 NCD M06/M09 Q1035


Station Type Date Time Source
LOWG Decoded METAR 2023/02/05 22:50 UTC NOAA

Graz-Thalerhof-Flughafen, Austria (LOWG) 47-00N 015-26E 347M
Feb 05, 2023 - 05:50 PM EST / 2023.02.05 2250 UTC
Wind: Variable at 1 MPH (1 KT):0
Visibility: greater than 7 mile(s):0
Temperature: 21 F (-6 C)
Dew Point: 15 F (-9 C)
Relative Humidity: 79%
Pressure (altimeter): 30.56 in. Hg (1035 hPa)
ob: LOWG 052250Z AUTO VRB01KT 9999 NCD M06/M09 Q1035
cycle: 23

Station Type Date Time Source
LOWG TAF 2023/02/05 18:21 UTC NOAA

TAF LOWG 051715Z 0518/0618 VRB04KT CAVOK TXM01/0614Z TNM08/0605Z

Example: see airport list